sensor_id;sensor_type;location;lat;lon;timestamp;P1;durP1;ratioP1;P2;durP2;ratioP2
69419;SDS011;71621;52.030;113.516;2024-02-28T00:01:51;12.85;;;4.88;;
69419;SDS011;71621;52.030;113.516;2024-02-28T00:04:55;42.53;;;14.02;;
69419;SDS011;71621;52.030;113.516;2024-02-28T00:08:01;23.77;;;7.17;;
69419;SDS011;71621;52.030;113.516;2024-02-28T00:11:05;24.08;;;6.53;;
69419;SDS011;71621;52.030;113.516;2024-02-28T00:14:08;31.30;;;7.32;;
69419;SDS011;71621;52.030;113.516;2024-02-28T00:17:13;31.08;;;9.40;;
69419;SDS011;71621;52.030;113.516;2024-02-28T00:20:16;26.38;;;5.85;;
69419;SDS011;71621;52.030;113.516;2024-02-28T00:23:20;31.23;;;10.55;;
69419;SDS011;71621;52.030;113.516;2024-02-28T00:26:23;376.15;;;87.47;;
69419;SDS011;71621;52.030;113.516;2024-02-28T00:29:26;110.30;;;29.10;;
69419;SDS011;71621;52.030;113.516;2024-02-28T00:32:30;36.22;;;11.13;;
69419;SDS011;71621;52.030;113.516;2024-02-28T00:35:33;28.40;;;9.93;;
69419;SDS011;71621;52.030;113.516;2024-02-28T00:38:41;12.03;;;4.63;;
69419;SDS011;71621;52.030;113.516;2024-02-28T00:41:44;16.30;;;4.97;;
69419;SDS011;71621;52.030;113.516;2024-02-28T00:44:48;16.70;;;5.40;;
69419;SDS011;71621;52.030;113.516;2024-02-28T00:47:51;13.70;;;4.85;;
69419;SDS011;71621;52.030;113.516;2024-02-28T00:50:57;19.45;;;5.35;;
69419;SDS011;71621;52.030;113.516;2024-02-28T00:54:01;25.23;;;6.57;;
69419;SDS011;71621;52.030;113.516;2024-02-28T00:57:04;17.00;;;5.15;;
69419;SDS011;71621;52.030;113.516;2024-02-28T01:00:08;15.27;;;5.27;;
69419;SDS011;71621;52.030;113.516;2024-02-28T01:03:12;12.18;;;4.13;;
69419;SDS011;71621;52.030;113.516;2024-02-28T01:06:18;5.95;;;1.40;;
69419;SDS011;71621;52.030;113.516;2024-02-28T01:09:21;8.40;;;1.83;;
69419;SDS011;71621;52.030;113.516;2024-02-28T01:12:25;7.55;;;1.38;;
69419;SDS011;71621;52.030;113.516;2024-02-28T01:15:28;9.70;;;2.70;;
69419;SDS011;71621;52.030;113.516;2024-02-28T01:18:32;11.35;;;3.70;;
69419;SDS011;71621;52.030;113.516;2024-02-28T01:21:35;8.65;;;2.28;;
69419;SDS011;71621;52.030;113.516;2024-02-28T01:24:39;8.07;;;3.53;;
69419;SDS011;71621;52.030;113.516;2024-02-28T01:27:42;8.30;;;2.67;;
69419;SDS011;71621;52.030;113.516;2024-02-28T01:30:46;9.27;;;3.57;;
69419;SDS011;71621;52.030;113.516;2024-02-28T01:33:50;20.67;;;3.25;;
69419;SDS011;71621;52.030;113.516;2024-02-28T01:36:54;23.63;;;3.42;;
69419;SDS011;71621;52.030;113.516;2024-02-28T01:39:58;9.77;;;3.33;;
69419;SDS011;71621;52.030;113.516;2024-02-28T01:43:07;8.27;;;3.05;;
69419;SDS011;71621;52.030;113.516;2024-02-28T01:46:22;11.90;;;3.20;;
69419;SDS011;71621;52.030;113.516;2024-02-28T01:49:28;11.57;;;3.08;;
69419;SDS011;71621;52.030;113.516;2024-02-28T01:52:32;10.68;;;4.25;;
69419;SDS011;71621;52.030;113.516;2024-02-28T01:55:36;30.60;;;5.97;;
69419;SDS011;71621;52.030;113.516;2024-02-28T01:58:41;11.43;;;2.45;;
69419;SDS011;71621;52.030;113.516;2024-02-28T02:01:48;20.07;;;3.90;;
69419;SDS011;71621;52.030;113.516;2024-02-28T02:04:51;15.48;;;4.93;;
69419;SDS011;71621;52.030;113.516;2024-02-28T02:07:56;11.98;;;3.88;;
69419;SDS011;71621;52.030;113.516;2024-02-28T02:11:01;13.13;;;4.17;;
69419;SDS011;71621;52.030;113.516;2024-02-28T02:14:04;8.93;;;3.50;;
69419;SDS011;71621;52.030;113.516;2024-02-28T02:17:08;10.85;;;3.95;;
69419;SDS011;71621;52.030;113.516;2024-02-28T02:20:11;16.08;;;4.15;;
69419;SDS011;71621;52.030;113.516;2024-02-28T02:23:17;14.43;;;3.05;;
69419;SDS011;71621;52.030;113.516;2024-02-28T02:26:21;12.48;;;3.83;;
69419;SDS011;71621;52.030;113.516;2024-02-28T02:29:24;17.10;;;4.82;;
69419;SDS011;71621;52.030;113.516;2024-02-28T02:32:30;13.90;;;3.77;;
69419;SDS011;71621;52.030;113.516;2024-02-28T02:35:33;3.53;;;1.90;;
69419;SDS011;71621;52.030;113.516;2024-02-28T02:38:37;9.07;;;2.10;;
69419;SDS011;71621;52.030;113.516;2024-02-28T02:41:41;19.37;;;2.77;;
69419;SDS011;71621;52.030;113.516;2024-02-28T02:44:45;8.02;;;1.25;;
69419;SDS011;71621;52.030;113.516;2024-02-28T02:47:48;6.50;;;1.45;;
69419;SDS011;71621;52.030;113.516;2024-02-28T02:50:52;6.03;;;2.00;;
69419;SDS011;71621;52.030;113.516;2024-02-28T02:53:55;6.38;;;1.83;;
69419;SDS011;71621;52.030;113.516;2024-02-28T02:56:59;7.63;;;2.03;;
69419;SDS011;71621;52.030;113.516;2024-02-28T03:00:02;10.52;;;2.25;;
69419;SDS011;71621;52.030;113.516;2024-02-28T03:03:06;8.67;;;2.20;;
69419;SDS011;71621;52.030;113.516;2024-02-28T03:06:11;4.45;;;1.38;;
69419;SDS011;71621;52.030;113.516;2024-02-28T03:09:14;8.82;;;2.42;;
69419;SDS011;71621;52.030;113.516;2024-02-28T03:12:18;9.30;;;1.93;;
69419;SDS011;71621;52.030;113.516;2024-02-28T03:15:21;8.40;;;2.45;;
69419;SDS011;71621;52.030;113.516;2024-02-28T03:18:25;13.60;;;2.58;;
69419;SDS011;71621;52.030;113.516;2024-02-28T03:21:28;7.13;;;1.83;;
69419;SDS011;71621;52.030;113.516;2024-02-28T03:24:32;6.70;;;1.88;;
69419;SDS011;71621;52.030;113.516;2024-02-28T03:27:38;8.88;;;2.30;;
69419;SDS011;71621;52.030;113.516;2024-02-28T03:30:42;26.02;;;3.60;;
69419;SDS011;71621;52.030;113.516;2024-02-28T03:33:45;11.23;;;2.37;;
69419;SDS011;71621;52.030;113.516;2024-02-28T03:36:50;12.00;;;2.50;;
69419;SDS011;71621;52.030;113.516;2024-02-28T03:39:53;13.88;;;2.67;;
69419;SDS011;71621;52.030;113.516;2024-02-28T03:42:57;11.83;;;2.90;;
69419;SDS011;71621;52.030;113.516;2024-02-28T03:46:02;16.83;;;4.22;;
69419;SDS011;71621;52.030;113.516;2024-02-28T03:49:05;6.57;;;2.20;;
69419;SDS011;71621;52.030;113.516;2024-02-28T03:52:09;7.68;;;1.90;;
69419;SDS011;71621;52.030;113.516;2024-02-28T03:55:12;4.35;;;1.42;;
69419;SDS011;71621;52.030;113.516;2024-02-28T03:58:16;7.50;;;2.20;;
69419;SDS011;71621;52.030;113.516;2024-02-28T04:01:19;14.23;;;3.83;;
69419;SDS011;71621;52.030;113.516;2024-02-28T04:04:23;9.93;;;2.07;;
69419;SDS011;71621;52.030;113.516;2024-02-28T04:07:27;7.70;;;2.05;;
69419;SDS011;71621;52.030;113.516;2024-02-28T04:10:30;6.63;;;2.45;;
69419;SDS011;71621;52.030;113.516;2024-02-28T04:13:34;14.40;;;2.77;;
69419;SDS011;71621;52.030;113.516;2024-02-28T04:16:41;19.58;;;2.60;;
69419;SDS011;71621;52.030;113.516;2024-02-28T04:19:46;5.28;;;1.27;;
69419;SDS011;71621;52.030;113.516;2024-02-28T04:22:50;21.25;;;2.53;;
69419;SDS011;71621;52.030;113.516;2024-02-28T04:25:53;15.30;;;2.90;;
69419;SDS011;71621;52.030;113.516;2024-02-28T04:28:56;10.55;;;2.70;;
69419;SDS011;71621;52.030;113.516;2024-02-28T04:32:01;12.95;;;2.75;;
69419;SDS011;71621;52.030;113.516;2024-02-28T04:35:04;11.13;;;2.93;;
69419;SDS011;71621;52.030;113.516;2024-02-28T04:38:09;15.35;;;2.25;;
69419;SDS011;71621;52.030;113.516;2024-02-28T04:41:12;13.07;;;3.05;;
69419;SDS011;71621;52.030;113.516;2024-02-28T04:44:19;14.83;;;3.40;;
69419;SDS011;71621;52.030;113.516;2024-02-28T04:47:22;16.88;;;2.53;;
69419;SDS011;71621;52.030;113.516;2024-02-28T04:50:37;28.73;;;3.88;;
69419;SDS011;71621;52.030;113.516;2024-02-28T04:53:40;15.52;;;2.92;;
69419;SDS011;71621;52.030;113.516;2024-02-28T04:56:43;21.25;;;3.85;;
69419;SDS011;71621;52.030;113.516;2024-02-28T04:59:49;8.32;;;2.83;;
69419;SDS011;71621;52.030;113.516;2024-02-28T05:02:52;15.93;;;3.28;;
69419;SDS011;71621;52.030;113.516;2024-02-28T05:05:56;14.40;;;2.87;;
69419;SDS011;71621;52.030;113.516;2024-02-28T05:08:59;12.98;;;2.10;;
69419;SDS011;71621;52.030;113.516;2024-02-28T05:12:03;9.25;;;2.92;;
69419;SDS011;71621;52.030;113.516;2024-02-28T05:15:06;18.67;;;3.60;;
69419;SDS011;71621;52.030;113.516;2024-02-28T05:18:10;9.05;;;2.10;;
69419;SDS011;71621;52.030;113.516;2024-02-28T05:21:13;12.43;;;3.22;;
69419;SDS011;71621;52.030;113.516;2024-02-28T05:24:17;6.85;;;2.15;;
69419;SDS011;71621;52.030;113.516;2024-02-28T05:27:21;8.95;;;1.92;;
69419;SDS011;71621;52.030;113.516;2024-02-28T05:30:24;8.63;;;2.05;;
69419;SDS011;71621;52.030;113.516;2024-02-28T05:33:28;9.63;;;1.70;;
69419;SDS011;71621;52.030;113.516;2024-02-28T05:36:32;9.03;;;2.07;;
69419;SDS011;71621;52.030;113.516;2024-02-28T05:39:35;10.75;;;2.33;;
69419;SDS011;71621;52.030;113.516;2024-02-28T05:42:39;10.60;;;2.10;;
69419;SDS011;71621;52.030;113.516;2024-02-28T05:45:42;9.77;;;1.87;;
69419;SDS011;71621;52.030;113.516;2024-02-28T05:48:46;7.78;;;2.10;;
69419;SDS011;71621;52.030;113.516;2024-02-28T05:51:49;7.55;;;1.65;;
69419;SDS011;71621;52.030;113.516;2024-02-28T05:54:53;8.38;;;2.00;;
69419;SDS011;71621;52.030;113.516;2024-02-28T05:57:56;18.00;;;2.70;;
69419;SDS011;71621;52.030;113.516;2024-02-28T06:01:00;10.50;;;2.85;;
69419;SDS011;71621;52.030;113.516;2024-02-28T06:04:04;18.63;;;5.85;;
69419;SDS011;71621;52.030;113.516;2024-02-28T06:07:08;9.40;;;2.60;;
69419;SDS011;71621;52.030;113.516;2024-02-28T06:10:11;9.52;;;2.17;;
69419;SDS011;71621;52.030;113.516;2024-02-28T06:13:15;7.38;;;2.10;;
69419;SDS011;71621;52.030;113.516;2024-02-28T06:16:18;59.83;;;17.63;;
69419;SDS011;71621;52.030;113.516;2024-02-28T06:19:21;71.72;;;17.45;;
69419;SDS011;71621;52.030;113.516;2024-02-28T06:22:25;16.13;;;4.00;;
69419;SDS011;71621;52.030;113.516;2024-02-28T06:25:28;38.30;;;13.85;;
69419;SDS011;71621;52.030;113.516;2024-02-28T06:28:32;26.30;;;7.25;;
69419;SDS011;71621;52.030;113.516;2024-02-28T06:31:35;11.57;;;3.15;;
69419;SDS011;71621;52.030;113.516;2024-02-28T06:34:39;9.80;;;3.08;;
69419;SDS011;71621;52.030;113.516;2024-02-28T06:37:43;19.60;;;5.33;;
69419;SDS011;71621;52.030;113.516;2024-02-28T06:40:52;7.47;;;1.73;;
69419;SDS011;71621;52.030;113.516;2024-02-28T06:43:56;13.75;;;2.85;;
69419;SDS011;71621;52.030;113.516;2024-02-28T06:46:59;22.55;;;5.63;;
69419;SDS011;71621;52.030;113.516;2024-02-28T06:50:03;13.70;;;4.80;;
69419;SDS011;71621;52.030;113.516;2024-02-28T06:53:07;11.50;;;3.17;;
69419;SDS011;71621;52.030;113.516;2024-02-28T06:56:11;16.55;;;4.07;;
69419;SDS011;71621;52.030;113.516;2024-02-28T06:59:14;22.70;;;3.00;;
69419;SDS011;71621;52.030;113.516;2024-02-28T07:02:18;14.00;;;2.83;;
69419;SDS011;71621;52.030;113.516;2024-02-28T07:05:21;7.95;;;1.90;;
69419;SDS011;71621;52.030;113.516;2024-02-28T07:08:25;6.00;;;1.80;;
69419;SDS011;71621;52.030;113.516;2024-02-28T07:11:28;8.85;;;2.38;;
69419;SDS011;71621;52.030;113.516;2024-02-28T07:14:32;6.97;;;1.80;;
69419;SDS011;71621;52.030;113.516;2024-02-28T07:17:35;15.15;;;3.65;;
69419;SDS011;71621;52.030;113.516;2024-02-28T07:20:39;8.20;;;1.90;;
69419;SDS011;71621;52.030;113.516;2024-02-28T07:23:42;3.67;;;0.95;;
69419;SDS011;71621;52.030;113.516;2024-02-28T07:26:46;10.73;;;1.73;;
69419;SDS011;71621;52.030;113.516;2024-02-28T07:29:50;11.07;;;2.97;;
69419;SDS011;71621;52.030;113.516;2024-02-28T07:32:53;71.40;;;15.25;;
69419;SDS011;71621;52.030;113.516;2024-02-28T07:35:57;8.50;;;2.70;;
69419;SDS011;71621;52.030;113.516;2024-02-28T07:39:03;11.18;;;2.55;;
69419;SDS011;71621;52.030;113.516;2024-02-28T07:42:07;6.72;;;1.90;;
69419;SDS011;71621;52.030;113.516;2024-02-28T07:45:10;6.35;;;1.70;;
69419;SDS011;71621;52.030;113.516;2024-02-28T07:48:14;16.95;;;4.13;;
69419;SDS011;71621;52.030;113.516;2024-02-28T07:51:20;13.10;;;4.27;;
69419;SDS011;71621;52.030;113.516;2024-02-28T07:54:24;25.75;;;5.90;;
69419;SDS011;71621;52.030;113.516;2024-02-28T07:57:28;9.98;;;3.70;;
69419;SDS011;71621;52.030;113.516;2024-02-28T08:00:32;39.10;;;10.50;;
69419;SDS011;71621;52.030;113.516;2024-02-28T08:03:38;9.20;;;2.63;;
69419;SDS011;71621;52.030;113.516;2024-02-28T08:06:42;4.68;;;1.45;;
69419;SDS011;71621;52.030;113.516;2024-02-28T08:09:45;8.15;;;3.05;;
69419;SDS011;71621;52.030;113.516;2024-02-28T08:12:49;3.60;;;0.93;;
69419;SDS011;71621;52.030;113.516;2024-02-28T08:15:53;6.13;;;0.77;;
69419;SDS011;71621;52.030;113.516;2024-02-28T08:18:56;9.27;;;2.20;;
69419;SDS011;71621;52.030;113.516;2024-02-28T08:22:01;9.23;;;2.13;;
69419;SDS011;71621;52.030;113.516;2024-02-28T08:25:05;5.47;;;1.90;;
69419;SDS011;71621;52.030;113.516;2024-02-28T08:28:09;15.30;;;4.13;;
69419;SDS011;71621;52.030;113.516;2024-02-28T08:31:12;16.08;;;2.85;;
69419;SDS011;71621;52.030;113.516;2024-02-28T08:34:16;13.57;;;2.67;;
69419;SDS011;71621;52.030;113.516;2024-02-28T08:37:20;7.40;;;1.85;;
69419;SDS011;71621;52.030;113.516;2024-02-28T08:40:23;10.13;;;2.13;;
69419;SDS011;71621;52.030;113.516;2024-02-28T08:43:27;30.50;;;7.43;;
69419;SDS011;71621;52.030;113.516;2024-02-28T08:46:30;11.82;;;2.83;;
69419;SDS011;71621;52.030;113.516;2024-02-28T08:49:34;8.55;;;1.77;;
69419;SDS011;71621;52.030;113.516;2024-02-28T08:52:38;10.82;;;2.55;;
69419;SDS011;71621;52.030;113.516;2024-02-28T08:55:42;10.35;;;2.17;;
69419;SDS011;71621;52.030;113.516;2024-02-28T08:58:45;19.15;;;3.65;;
69419;SDS011;71621;52.030;113.516;2024-02-28T09:01:49;19.35;;;3.33;;
69419;SDS011;71621;52.030;113.516;2024-02-28T09:04:53;3.60;;;1.20;;
69419;SDS011;71621;52.030;113.516;2024-02-28T09:07:59;14.00;;;3.25;;
69419;SDS011;71621;52.030;113.516;2024-02-28T09:11:03;7.03;;;1.65;;
69419;SDS011;71621;52.030;113.516;2024-02-28T09:14:08;9.53;;;1.97;;
69419;SDS011;71621;52.030;113.516;2024-02-28T09:17:11;8.13;;;1.58;;
69419;SDS011;71621;52.030;113.516;2024-02-28T09:20:15;13.65;;;2.95;;
69419;SDS011;71621;52.030;113.516;2024-02-28T09:23:18;26.63;;;5.25;;
69419;SDS011;71621;52.030;113.516;2024-02-28T09:26:22;24.05;;;4.65;;
69419;SDS011;71621;52.030;113.516;2024-02-28T09:29:25;21.70;;;6.10;;
69419;SDS011;71621;52.030;113.516;2024-02-28T09:32:29;8.18;;;2.13;;
69419;SDS011;71621;52.030;113.516;2024-02-28T09:35:32;19.17;;;7.17;;
69419;SDS011;71621;52.030;113.516;2024-02-28T09:38:36;15.43;;;2.80;;
69419;SDS011;71621;52.030;113.516;2024-02-28T09:41:39;16.70;;;5.70;;
69419;SDS011;71621;52.030;113.516;2024-02-28T09:44:44;16.87;;;4.63;;
69419;SDS011;71621;52.030;113.516;2024-02-28T09:47:48;30.60;;;7.32;;
69419;SDS011;71621;52.030;113.516;2024-02-28T09:50:52;40.72;;;15.70;;
69419;SDS011;71621;52.030;113.516;2024-02-28T09:53:55;19.42;;;4.75;;
69419;SDS011;71621;52.030;113.516;2024-02-28T09:57:03;36.33;;;10.05;;
69419;SDS011;71621;52.030;113.516;2024-02-28T10:00:15;22.10;;;7.15;;
69419;SDS011;71621;52.030;113.516;2024-02-28T10:03:22;44.42;;;11.35;;
69419;SDS011;71621;52.030;113.516;2024-02-28T10:06:27;20.20;;;5.43;;
69419;SDS011;71621;52.030;113.516;2024-02-28T10:09:31;27.42;;;8.50;;
69419;SDS011;71621;52.030;113.516;2024-02-28T10:12:34;25.55;;;7.30;;
69419;SDS011;71621;52.030;113.516;2024-02-28T10:15:38;31.00;;;8.40;;
69419;SDS011;71621;52.030;113.516;2024-02-28T10:18:44;41.03;;;9.02;;
69419;SDS011;71621;52.030;113.516;2024-02-28T10:21:49;161.85;;;54.78;;
69419;SDS011;71621;52.030;113.516;2024-02-28T10:24:57;29.50;;;10.75;;
69419;SDS011;71621;52.030;113.516;2024-02-28T10:28:04;30.23;;;8.55;;
69419;SDS011;71621;52.030;113.516;2024-02-28T10:31:08;45.88;;;11.93;;
69419;SDS011;71621;52.030;113.516;2024-02-28T10:34:11;45.67;;;12.48;;
69419;SDS011;71621;52.030;113.516;2024-02-28T10:37:16;34.33;;;11.33;;
69419;SDS011;71621;52.030;113.516;2024-02-28T10:40:20;47.25;;;15.02;;
69419;SDS011;71621;52.030;113.516;2024-02-28T10:43:26;47.45;;;17.10;;
69419;SDS011;71621;52.030;113.516;2024-02-28T10:46:37;61.10;;;15.97;;
69419;SDS011;71621;52.030;113.516;2024-02-28T10:49:42;43.58;;;16.65;;
69419;SDS011;71621;52.030;113.516;2024-02-28T10:52:49;36.72;;;12.98;;
69419;SDS011;71621;52.030;113.516;2024-02-28T10:55:57;59.08;;;12.93;;
69419;SDS011;71621;52.030;113.516;2024-02-28T10:59:07;53.17;;;18.98;;
69419;SDS011;71621;52.030;113.516;2024-02-28T11:02:13;37.03;;;14.02;;
69419;SDS011;71621;52.030;113.516;2024-02-28T11:05:17;69.50;;;18.05;;
69419;SDS011;71621;52.030;113.516;2024-02-28T11:08:21;37.33;;;11.67;;
69419;SDS011;71621;52.030;113.516;2024-02-28T11:11:32;62.75;;;20.70;;
69419;SDS011;71621;52.030;113.516;2024-02-28T11:14:36;59.25;;;18.75;;
69419;SDS011;71621;52.030;113.516;2024-02-28T11:17:39;73.47;;;20.07;;
69419;SDS011;71621;52.030;113.516;2024-02-28T11:20:43;24.88;;;8.55;;
69419;SDS011;71621;52.030;113.516;2024-02-28T11:23:50;29.45;;;10.07;;
69419;SDS011;71621;52.030;113.516;2024-02-28T11:26:54;38.50;;;12.15;;
69419;SDS011;71621;52.030;113.516;2024-02-28T11:29:57;32.15;;;12.98;;
69419;SDS011;71621;52.030;113.516;2024-02-28T11:33:01;24.38;;;8.10;;
69419;SDS011;71621;52.030;113.516;2024-02-28T11:36:07;31.17;;;8.13;;
69419;SDS011;71621;52.030;113.516;2024-02-28T11:39:12;21.37;;;6.40;;
69419;SDS011;71621;52.030;113.516;2024-02-28T11:42:16;28.15;;;8.18;;
69419;SDS011;71621;52.030;113.516;2024-02-28T11:45:20;26.58;;;6.57;;
69419;SDS011;71621;52.030;113.516;2024-02-28T11:48:25;25.70;;;8.60;;
69419;SDS011;71621;52.030;113.516;2024-02-28T11:51:30;27.40;;;10.02;;
69419;SDS011;71621;52.030;113.516;2024-02-28T11:54:33;22.25;;;7.22;;
69419;SDS011;71621;52.030;113.516;2024-02-28T11:57:37;28.15;;;9.32;;
69419;SDS011;71621;52.030;113.516;2024-02-28T12:00:48;23.80;;;7.93;;
69419;SDS011;71621;52.030;113.516;2024-02-28T12:03:53;27.55;;;10.07;;
69419;SDS011;71621;52.030;113.516;2024-02-28T12:06:57;22.88;;;6.63;;
69419;SDS011;71621;52.030;113.516;2024-02-28T12:10:00;21.80;;;5.73;;
69419;SDS011;71621;52.030;113.516;2024-02-28T12:13:04;19.90;;;6.35;;
69419;SDS011;71621;52.030;113.516;2024-02-28T12:16:08;20.92;;;5.57;;
69419;SDS011;71621;52.030;113.516;2024-02-28T12:19:12;21.50;;;7.93;;
69419;SDS011;71621;52.030;113.516;2024-02-28T12:22:17;16.35;;;6.13;;
69419;SDS011;71621;52.030;113.516;2024-02-28T12:25:21;21.67;;;5.60;;
69419;SDS011;71621;52.030;113.516;2024-02-28T12:28:25;21.38;;;7.07;;
69419;SDS011;71621;52.030;113.516;2024-02-28T12:31:28;16.90;;;4.47;;
69419;SDS011;71621;52.030;113.516;2024-02-28T12:34:32;17.15;;;5.25;;
69419;SDS011;71621;52.030;113.516;2024-02-28T12:37:35;18.20;;;6.07;;
69419;SDS011;71621;52.030;113.516;2024-02-28T12:40:39;17.03;;;4.20;;
69419;SDS011;71621;52.030;113.516;2024-02-28T12:43:43;18.55;;;5.38;;
69419;SDS011;71621;52.030;113.516;2024-02-28T12:46:46;44.90;;;9.88;;
69419;SDS011;71621;52.030;113.516;2024-02-28T12:49:50;22.83;;;5.80;;
69419;SDS011;71621;52.030;113.516;2024-02-28T12:52:53;29.02;;;9.23;;
69419;SDS011;71621;52.030;113.516;2024-02-28T12:55:57;34.08;;;8.50;;
69419;SDS011;71621;52.030;113.516;2024-02-28T12:59:01;21.13;;;5.18;;
69419;SDS011;71621;52.030;113.516;2024-02-28T13:02:06;19.02;;;6.32;;
69419;SDS011;71621;52.030;113.516;2024-02-28T13:05:10;24.75;;;7.80;;
69419;SDS011;71621;52.030;113.516;2024-02-28T13:08:15;16.15;;;4.90;;
69419;SDS011;71621;52.030;113.516;2024-02-28T13:11:19;23.67;;;6.80;;
69419;SDS011;71621;52.030;113.516;2024-02-28T13:14:24;30.40;;;8.32;;
69419;SDS011;71621;52.030;113.516;2024-02-28T13:17:28;27.75;;;7.55;;
69419;SDS011;71621;52.030;113.516;2024-02-28T13:20:32;16.23;;;5.13;;
69419;SDS011;71621;52.030;113.516;2024-02-28T13:23:35;26.70;;;8.15;;
69419;SDS011;71621;52.030;113.516;2024-02-28T13:26:40;17.90;;;5.40;;
69419;SDS011;71621;52.030;113.516;2024-02-28T13:29:43;20.05;;;5.03;;
69419;SDS011;71621;52.030;113.516;2024-02-28T13:32:47;32.15;;;7.80;;
69419;SDS011;71621;52.030;113.516;2024-02-28T13:35:51;21.05;;;5.15;;
69419;SDS011;71621;52.030;113.516;2024-02-28T13:38:55;25.40;;;8.25;;
69419;SDS011;71621;52.030;113.516;2024-02-28T13:41:59;27.27;;;7.97;;
69419;SDS011;71621;52.030;113.516;2024-02-28T13:45:04;21.10;;;5.95;;
69419;SDS011;71621;52.030;113.516;2024-02-28T13:48:15;39.15;;;10.32;;
69419;SDS011;71621;52.030;113.516;2024-02-28T13:51:29;16.70;;;4.90;;
69419;SDS011;71621;52.030;113.516;2024-02-28T13:54:33;15.40;;;3.50;;
69419;SDS011;71621;52.030;113.516;2024-02-28T13:57:37;19.80;;;6.10;;
69419;SDS011;71621;52.030;113.516;2024-02-28T14:00:41;12.95;;;3.17;;
69419;SDS011;71621;52.030;113.516;2024-02-28T14:03:47;16.02;;;5.28;;
69419;SDS011;71621;52.030;113.516;2024-02-28T14:06:51;11.07;;;2.33;;
69419;SDS011;71621;52.030;113.516;2024-02-28T14:09:54;16.10;;;2.40;;
69419;SDS011;71621;52.030;113.516;2024-02-28T14:12:59;10.17;;;1.67;;
69419;SDS011;71621;52.030;113.516;2024-02-28T14:16:03;22.08;;;2.90;;
69419;SDS011;71621;52.030;113.516;2024-02-28T14:19:07;14.10;;;3.28;;
69419;SDS011;71621;52.030;113.516;2024-02-28T14:22:11;9.10;;;2.47;;
69419;SDS011;71621;52.030;113.516;2024-02-28T14:25:15;6.07;;;1.70;;
69419;SDS011;71621;52.030;113.516;2024-02-28T14:28:19;15.82;;;4.15;;
69419;SDS011;71621;52.030;113.516;2024-02-28T14:31:23;9.00;;;2.60;;
69419;SDS011;71621;52.030;113.516;2024-02-28T14:34:27;12.18;;;2.88;;
69419;SDS011;71621;52.030;113.516;2024-02-28T14:37:34;13.73;;;3.75;;
69419;SDS011;71621;52.030;113.516;2024-02-28T14:40:38;7.85;;;2.10;;
69419;SDS011;71621;52.030;113.516;2024-02-28T14:43:41;6.67;;;2.40;;
69419;SDS011;71621;52.030;113.516;2024-02-28T14:46:45;11.63;;;2.88;;
69419;SDS011;71621;52.030;113.516;2024-02-28T14:49:48;5.97;;;1.40;;
69419;SDS011;71621;52.030;113.516;2024-02-28T14:52:52;23.80;;;5.27;;
69419;SDS011;71621;52.030;113.516;2024-02-28T14:55:55;11.88;;;2.88;;
69419;SDS011;71621;52.030;113.516;2024-02-28T14:58:59;6.15;;;2.40;;
69419;SDS011;71621;52.030;113.516;2024-02-28T15:02:02;7.43;;;3.38;;
69419;SDS011;71621;52.030;113.516;2024-02-28T15:05:06;12.30;;;4.95;;
69419;SDS011;71621;52.030;113.516;2024-02-28T15:08:11;7.18;;;1.88;;
69419;SDS011;71621;52.030;113.516;2024-02-28T15:11:14;5.18;;;1.70;;
69419;SDS011;71621;52.030;113.516;2024-02-28T15:14:18;12.87;;;3.20;;
69419;SDS011;71621;52.030;113.516;2024-02-28T15:17:22;38.22;;;7.45;;
69419;SDS011;71621;52.030;113.516;2024-02-28T15:20:26;34.97;;;9.93;;
69419;SDS011;71621;52.030;113.516;2024-02-28T15:23:29;34.93;;;11.97;;
69419;SDS011;71621;52.030;113.516;2024-02-28T15:26:34;83.28;;;25.05;;
69419;SDS011;71621;52.030;113.516;2024-02-28T15:29:47;99.45;;;27.83;;
69419;SDS011;71621;52.030;113.516;2024-02-28T15:32:51;104.68;;;29.25;;
69419;SDS011;71621;52.030;113.516;2024-02-28T15:35:54;94.68;;;28.60;;
69419;SDS011;71621;52.030;113.516;2024-02-28T15:38:58;98.95;;;28.90;;
69419;SDS011;71621;52.030;113.516;2024-02-28T15:42:02;87.97;;;29.40;;
69419;SDS011;71621;52.030;113.516;2024-02-28T15:45:05;82.23;;;27.63;;
69419;SDS011;71621;52.030;113.516;2024-02-28T15:48:09;94.57;;;28.33;;
69419;SDS011;71621;52.030;113.516;2024-02-28T15:51:13;102.13;;;29.20;;
69419;SDS011;71621;52.030;113.516;2024-02-28T15:54:16;100.00;;;31.73;;
69419;SDS011;71621;52.030;113.516;2024-02-28T15:57:20;77.40;;;18.42;;
69419;SDS011;71621;52.030;113.516;2024-02-28T16:00:23;44.15;;;13.35;;
69419;SDS011;71621;52.030;113.516;2024-02-28T16:03:27;48.33;;;15.40;;
69419;SDS011;71621;52.030;113.516;2024-02-28T16:06:30;48.97;;;14.95;;
69419;SDS011;71621;52.030;113.516;2024-02-28T16:09:41;40.45;;;14.60;;
69419;SDS011;71621;52.030;113.516;2024-02-28T16:12:45;53.65;;;17.58;;
69419;SDS011;71621;52.030;113.516;2024-02-28T16:15:50;47.03;;;16.47;;
69419;SDS011;71621;52.030;113.516;2024-02-28T16:18:53;43.83;;;13.70;;
69419;SDS011;71621;52.030;113.516;2024-02-28T16:21:57;28.33;;;9.60;;
69419;SDS011;71621;52.030;113.516;2024-02-28T16:25:01;42.30;;;12.13;;
69419;SDS011;71621;52.030;113.516;2024-02-28T16:28:05;59.78;;;12.85;;
69419;SDS011;71621;52.030;113.516;2024-02-28T16:31:09;49.80;;;13.82;;
69419;SDS011;71621;52.030;113.516;2024-02-28T16:34:13;56.90;;;14.93;;
69419;SDS011;71621;52.030;113.516;2024-02-28T16:37:17;42.78;;;13.57;;
69419;SDS011;71621;52.030;113.516;2024-02-28T16:40:20;16.95;;;6.30;;
69419;SDS011;71621;52.030;113.516;2024-02-28T16:43:24;40.70;;;11.80;;
69419;SDS011;71621;52.030;113.516;2024-02-28T16:46:27;58.47;;;16.17;;
69419;SDS011;71621;52.030;113.516;2024-02-28T16:49:31;44.17;;;12.05;;
69419;SDS011;71621;52.030;113.516;2024-02-28T16:52:34;48.42;;;13.63;;
69419;SDS011;71621;52.030;113.516;2024-02-28T16:55:38;43.20;;;11.97;;
69419;SDS011;71621;52.030;113.516;2024-02-28T16:58:42;46.63;;;13.52;;
69419;SDS011;71621;52.030;113.516;2024-02-28T17:01:45;62.33;;;14.85;;
69419;SDS011;71621;52.030;113.516;2024-02-28T17:04:51;43.70;;;13.88;;
69419;SDS011;71621;52.030;113.516;2024-02-28T17:07:55;65.55;;;16.85;;
69419;SDS011;71621;52.030;113.516;2024-02-28T17:10:59;55.58;;;16.25;;
69419;SDS011;71621;52.030;113.516;2024-02-28T17:14:02;45.08;;;15.68;;
69419;SDS011;71621;52.030;113.516;2024-02-28T17:17:06;50.53;;;16.27;;
69419;SDS011;71621;52.030;113.516;2024-02-28T17:20:11;49.58;;;15.65;;
69419;SDS011;71621;52.030;113.516;2024-02-28T17:23:16;53.40;;;15.02;;
69419;SDS011;71621;52.030;113.516;2024-02-28T17:26:19;45.43;;;16.80;;
69419;SDS011;71621;52.030;113.516;2024-02-28T17:29:23;59.08;;;16.40;;
69419;SDS011;71621;52.030;113.516;2024-02-28T17:32:26;69.28;;;18.88;;
69419;SDS011;71621;52.030;113.516;2024-02-28T17:35:30;69.97;;;18.92;;
69419;SDS011;71621;52.030;113.516;2024-02-28T17:38:34;71.47;;;19.88;;
69419;SDS011;71621;52.030;113.516;2024-02-28T17:41:38;62.90;;;20.20;;